createdAt,value
2022-08-05T00:03:54.572Z,12.73
2022-08-05T00:06:29.073Z,11.80
2022-08-05T00:09:00.211Z,9.13
2022-08-05T00:11:30.211Z,10.48
2022-08-05T00:14:01.229Z,20.65
2022-08-05T00:16:36.378Z,18.80
2022-08-05T00:19:14.988Z,12.23
2022-08-05T00:21:42.643Z,20.70
2022-08-05T00:24:10.913Z,22.80
2022-08-05T00:26:37.589Z,18.08
2022-08-05T00:29:03.849Z,39.70
2022-08-05T00:31:53.541Z,9.60
2022-08-05T00:34:55.793Z,8.18
2022-08-05T00:37:09.721Z,9.40
2022-08-05T00:39:57.259Z,13.02
2022-08-05T00:42:36.639Z,21.30
2022-08-05T00:45:05.251Z,34.10
2022-08-05T00:47:56.321Z,21.17
2022-08-05T00:50:21.442Z,28.60
2022-08-05T00:52:51.887Z,9.40
2022-08-05T00:55:19.737Z,12.30
2022-08-05T00:57:57.992Z,16.05
2022-08-05T01:00:26.207Z,18.75
2022-08-05T01:02:52.645Z,10.80
2022-08-05T01:05:19.345Z,45.65
2022-08-05T01:08:30.676Z,9.90
2022-08-05T01:10:36.856Z,49.45
2022-08-05T01:13:13.376Z,35.45
2022-08-05T01:18:09.518Z,41.72
2022-08-05T01:20:51.521Z,10.65
2022-08-05T01:23:34.856Z,12.35
2022-08-05T01:26:20.328Z,23.65
2022-08-05T01:29:05.049Z,25.77
2022-08-05T01:31:46.735Z,14.43
2022-08-05T01:34:12.966Z,13.73
2022-08-05T01:36:46.836Z,9.50
2022-08-05T01:39:15.534Z,9.75
2022-08-05T01:42:02.095Z,19.42
2022-08-05T01:47:02.468Z,35.78
2022-08-05T01:50:00.546Z,49.78
2022-08-05T01:52:20.650Z,72.00
2022-08-05T01:54:49.230Z,54.38
2022-08-05T01:58:10.036Z,73.03
2022-08-05T02:00:11.861Z,50.05
2022-08-05T02:02:46.532Z,65.25
2022-08-05T02:05:23.494Z,59.45
2022-08-05T02:07:59.797Z,38.15
2022-08-05T02:10:28.904Z,32.20
2022-08-05T02:12:57.826Z,29.48
2022-08-05T02:15:24.769Z,29.35
2022-08-05T02:18:32.610Z,28.98
2022-08-05T02:20:53.593Z,37.10
2022-08-05T02:23:22.341Z,39.53
2022-08-05T02:25:50.554Z,32.22
2022-08-05T02:28:29.188Z,44.67
2022-08-05T02:31:00.169Z,25.73
2022-08-05T02:33:35.758Z,47.53
2022-08-05T02:36:05.602Z,33.60
2022-08-05T02:38:35.829Z,39.15
2022-08-05T02:41:14.605Z,35.95
2022-08-05T02:44:06.639Z,31.45
2022-08-05T02:46:30.997Z,34.00
2022-08-05T02:48:57.661Z,29.40
2022-08-05T02:54:03.442Z,32.83
2022-08-05T02:56:30.961Z,40.85
2022-08-05T02:58:59.366Z,32.30
2022-08-05T03:01:27.313Z,41.03
2022-08-05T03:04:02.019Z,37.42
2022-08-05T03:06:55.330Z,41.72
2022-08-05T03:09:17.890Z,37.17
2022-08-05T03:12:03.786Z,28.83
2022-08-05T03:14:30.112Z,38.92
2022-08-05T03:16:56.908Z,32.80
2022-08-05T03:19:34.488Z,38.20
2022-08-05T03:24:30.416Z,41.20
2022-08-05T03:26:57.405Z,44.70
2022-08-05T03:29:23.984Z,59.78
2022-08-05T03:34:24.456Z,41.72
2022-08-05T03:36:50.891Z,36.88
2022-08-05T03:39:20.213Z,51.55
2022-08-05T03:41:53.637Z,35.92
2022-08-05T03:44:22.696Z,49.45
2022-08-05T03:46:48.987Z,48.95
2022-08-05T03:49:15.517Z,37.55
2022-08-05T03:52:38.733Z,40.67
2022-08-05T03:55:50.065Z,54.38
2022-08-05T03:57:41.590Z,36.20
2022-08-05T04:00:10.522Z,42.50
2022-08-05T04:02:45.195Z,55.58
2022-08-05T04:05:19.370Z,61.72
2022-08-05T04:07:57.301Z,54.60
2022-08-05T04:10:24.898Z,63.92
2022-08-05T04:12:54.497Z,133.07
2022-08-05T04:15:21.198Z,78.32
2022-08-05T04:17:56.685Z,71.75
2022-08-05T04:20:24.006Z,79.95
2022-08-05T04:22:50.322Z,39.67
2022-08-05T04:25:16.845Z,32.53
2022-08-05T04:27:56.649Z,20.33
2022-08-05T04:30:24.507Z,35.42
2022-08-05T04:32:53.016Z,21.75
2022-08-05T04:35:19.837Z,42.35
2022-08-05T04:38:00.971Z,18.58
2022-08-05T04:40:28.173Z,31.85
2022-08-05T04:42:55.809Z,18.55
2022-08-05T04:45:47.832Z,25.05
2022-08-05T04:48:18.460Z,39.50
2022-08-05T04:51:01.999Z,41.78
2022-08-05T04:53:38.897Z,44.53
2022-08-05T04:56:33.341Z,49.75
2022-08-05T04:58:52.962Z,39.22
2022-08-05T05:01:59.644Z,41.38
2022-08-05T05:04:05.593Z,26.10
2022-08-05T05:06:36.068Z,30.10
2022-08-05T05:09:17.416Z,17.77
2022-08-05T05:11:53.202Z,28.40
2022-08-05T05:14:28.091Z,38.60
2022-08-05T05:16:58.881Z,27.13
2022-08-05T05:21:55.517Z,48.35
2022-08-05T05:24:22.041Z,61.90
2022-08-05T05:26:48.540Z,36.00
2022-08-05T05:29:18.260Z,51.85
2022-08-05T05:31:46.328Z,45.30
2022-08-05T05:34:12.863Z,44.03
2022-08-05T05:36:41.897Z,59.55
2022-08-05T05:39:10.832Z,49.05
2022-08-05T05:41:40.035Z,36.45
2022-08-05T05:44:35.837Z,48.58
2022-08-05T05:46:53.532Z,36.50
2022-08-05T05:49:22.837Z,43.97
2022-08-05T05:51:50.643Z,32.75
2022-08-05T05:54:17.169Z,36.08
2022-08-05T05:56:43.570Z,46.53
2022-08-05T05:59:10.137Z,35.53
2022-08-05T06:04:03.857Z,44.43
2022-08-05T06:06:33.224Z,49.65
2022-08-05T06:09:01.717Z,42.03
2022-08-05T06:11:30.319Z,60.88
2022-08-05T06:13:56.682Z,56.58
2022-08-05T06:16:28.978Z,58.97
2022-08-05T06:18:59.973Z,53.17
2022-08-05T06:21:36.548Z,57.00
2022-08-05T06:24:04.988Z,46.13
2022-08-05T06:26:33.794Z,50.28
2022-08-05T06:29:06.036Z,56.42
2022-08-05T06:31:47.543Z,56.70
2022-08-05T06:34:16.920Z,64.68
2022-08-05T06:36:56.925Z,55.08
2022-08-05T06:39:27.203Z,73.35
2022-08-05T06:41:54.360Z,54.90
2022-08-05T06:44:22.000Z,62.22
2022-08-05T06:46:50.869Z,57.95
2022-08-05T06:49:17.484Z,56.95
2022-08-05T06:51:45.149Z,49.85
2022-08-05T06:54:11.935Z,36.42
2022-08-05T06:56:55.041Z,48.35
2022-08-05T06:59:30.801Z,36.38
2022-08-05T07:02:05.262Z,34.08
2022-08-05T07:04:31.532Z,41.90
2022-08-05T07:06:59.302Z,27.70
2022-08-05T07:09:25.682Z,43.75
2022-08-05T07:12:00.430Z,36.13
2022-08-05T07:14:45.584Z,53.42
2022-08-05T07:17:58.905Z,36.25
2022-08-05T07:20:31.630Z,40.08
2022-08-05T07:22:44.354Z,34.88
2022-08-05T07:25:22.444Z,41.45
2022-08-05T07:27:56.465Z,42.90
2022-08-05T07:30:31.889Z,41.25
2022-08-05T07:32:59.961Z,39.70
2022-08-05T07:36:05.058Z,50.17
2022-08-05T07:38:32.209Z,57.65
2022-08-05T07:41:04.123Z,27.70
2022-08-05T07:43:43.703Z,37.38
2022-08-05T07:46:18.195Z,36.67
2022-08-05T07:49:02.100Z,34.10
2022-08-05T07:51:37.383Z,61.80
2022-08-05T07:54:15.224Z,50.83
2022-08-05T07:57:14.642Z,42.92
2022-08-05T07:59:38.342Z,43.35
2022-08-05T08:02:15.848Z,18.58
2022-08-05T08:04:44.900Z,31.60
2022-08-05T08:07:11.550Z,33.70
2022-08-05T08:09:38.252Z,16.48
2022-08-05T08:12:12.519Z,23.35
2022-08-05T08:14:46.566Z,20.85
2022-08-05T08:17:15.955Z,29.20
2022-08-05T08:20:10.828Z,32.25
2022-08-05T08:22:29.577Z,44.28
2022-08-05T08:24:55.938Z,37.72
2022-08-05T08:27:35.611Z,38.60
2022-08-05T08:30:29.612Z,21.17
2022-08-05T08:32:53.314Z,36.17
2022-08-05T08:37:51.749Z,28.42
2022-08-05T08:40:20.718Z,41.88
2022-08-05T08:42:52.760Z,34.90
2022-08-05T08:45:27.202Z,45.95
2022-08-05T08:48:06.776Z,32.83
2022-08-05T08:51:03.650Z,31.90
2022-08-05T08:53:28.794Z,33.10
2022-08-05T08:56:03.919Z,26.10
2022-08-05T08:58:43.112Z,32.30
2022-08-05T09:01:15.622Z,38.13
2022-08-05T09:03:45.307Z,32.97
2022-08-05T09:06:15.810Z,22.35
2022-08-05T09:08:46.348Z,34.38
2022-08-05T09:11:13.930Z,24.20
2022-08-05T09:14:00.978Z,32.88
2022-08-05T09:16:27.473Z,38.85
2022-08-05T09:22:21.973Z,41.03
2022-08-05T09:24:10.189Z,24.80
2022-08-05T09:26:36.834Z,24.35
2022-08-05T09:34:17.071Z,30.52
2022-08-05T09:36:56.070Z,33.67
2022-08-05T09:39:41.317Z,41.35
2022-08-05T09:42:17.539Z,33.08
2022-08-05T09:44:51.654Z,33.97
2022-08-05T09:47:20.526Z,24.50
2022-08-05T09:50:01.680Z,25.40
2022-08-05T09:52:35.453Z,22.83
2022-08-05T09:55:57.086Z,22.17
2022-08-05T09:57:54.638Z,28.23
2022-08-05T10:00:25.789Z,34.85
2022-08-05T10:02:54.601Z,27.35
2022-08-05T10:05:22.604Z,25.42
2022-08-05T10:08:36.586Z,18.58
2022-08-05T10:10:54.557Z,24.77
2022-08-05T10:13:47.728Z,25.98
2022-08-05T10:16:37.596Z,27.65
2022-08-05T10:19:09.513Z,24.67
2022-08-05T10:21:40.355Z,27.52
2022-08-05T10:24:10.942Z,30.90
2022-08-05T10:26:37.664Z,29.20
2022-08-05T10:29:20.346Z,35.30
2022-08-05T10:32:53.354Z,22.25
2022-08-05T10:34:49.266Z,22.40
2022-08-05T10:37:16.381Z,37.33
2022-08-05T10:40:03.447Z,32.10
2022-08-05T10:42:34.665Z,37.80
2022-08-05T10:45:01.250Z,29.25
2022-08-05T10:47:32.257Z,43.85
2022-08-05T10:50:20.669Z,37.03
2022-08-05T10:52:58.619Z,23.63
2022-08-05T10:55:25.705Z,35.42
2022-08-05T10:58:08.529Z,27.92
2022-08-05T11:00:35.162Z,33.65
2022-08-05T11:03:23.585Z,24.77
2022-08-05T11:06:15.493Z,22.10
2022-08-05T11:09:02.881Z,23.20
2022-08-05T11:11:44.365Z,22.42
2022-08-05T11:14:12.329Z,28.45
2022-08-05T11:16:55.939Z,37.35
2022-08-05T11:20:16.683Z,24.08
2022-08-05T11:22:42.193Z,28.15
2022-08-05T11:26:06.073Z,22.65
2022-08-05T11:28:16.941Z,43.67
2022-08-05T11:30:55.760Z,26.05
2022-08-05T11:33:46.717Z,26.67
2022-08-05T11:36:16.959Z,26.70
2022-08-05T11:39:01.173Z,25.83
2022-08-05T11:41:54.463Z,36.30
2022-08-05T11:44:40.634Z,32.03
2022-08-05T11:47:14.161Z,22.48
2022-08-05T11:49:46.423Z,22.65
2022-08-05T11:52:44.151Z,24.73
2022-08-05T11:55:13.170Z,23.88
2022-08-05T11:58:10.690Z,32.53
2022-08-05T12:00:31.612Z,35.38
2022-08-05T12:02:58.004Z,24.25
2022-08-05T12:05:36.283Z,37.15
2022-08-05T12:08:09.779Z,31.52
2022-08-05T12:10:46.084Z,27.45
2022-08-05T12:13:16.670Z,26.13
2022-08-05T12:15:44.750Z,22.75
2022-08-05T12:18:12.320Z,34.47
2022-08-05T12:20:39.117Z,26.38
2022-08-05T12:23:11.945Z,30.13
2022-08-05T12:25:56.785Z,23.83
2022-08-05T12:28:30.952Z,26.10
2022-08-05T12:30:57.840Z,23.42
2022-08-05T12:33:36.237Z,29.05
2022-08-05T12:36:04.223Z,28.63
2022-08-05T12:38:36.149Z,33.28
2022-08-05T12:41:02.986Z,30.80
2022-08-05T12:43:32.272Z,34.53
2022-08-05T12:45:58.798Z,31.27
2022-08-05T12:48:27.479Z,38.67
2022-08-05T12:52:11.013Z,23.15
2022-08-05T12:54:04.862Z,26.52
2022-08-05T12:56:45.152Z,24.85
2022-08-05T12:59:23.837Z,31.42
2022-08-05T13:02:07.656Z,36.47
2022-08-05T13:04:35.672Z,32.58
2022-08-05T13:07:16.167Z,27.13
2022-08-05T13:09:50.837Z,32.92
2022-08-05T13:12:28.306Z,28.45
2022-08-05T13:15:05.544Z,22.10
2022-08-05T13:17:41.343Z,29.92
2022-08-05T13:20:12.525Z,24.73
2022-08-05T13:22:39.761Z,30.25
2022-08-05T13:25:19.519Z,33.63
2022-08-05T13:27:50.193Z,32.20
2022-08-05T13:30:33.834Z,32.75
2022-08-05T13:33:02.535Z,23.17
2022-08-05T13:35:31.262Z,31.58
2022-08-05T13:38:15.754Z,58.53
2022-08-05T13:40:54.807Z,42.70
2022-08-05T13:43:22.189Z,32.15
2022-08-05T13:45:48.685Z,27.75
2022-08-05T13:48:58.128Z,37.50
2022-08-05T13:51:10.068Z,32.27
2022-08-05T13:53:47.454Z,32.70
2022-08-05T13:56:18.148Z,32.20
2022-08-05T13:58:52.944Z,25.05
2022-08-05T14:01:22.737Z,37.45
2022-08-05T14:04:12.357Z,25.02
2022-08-05T14:06:38.744Z,18.52
2022-08-05T14:09:08.241Z,22.52
2022-08-05T14:12:04.067Z,19.30
2022-08-05T14:14:32.300Z,22.00
2022-08-05T14:17:00.155Z,17.73
2022-08-05T14:19:27.093Z,23.13
2022-08-05T14:22:09.530Z,17.80
2022-08-05T14:24:39.773Z,23.92
2022-08-05T14:27:17.464Z,27.50
2022-08-05T14:29:45.005Z,20.42
2022-08-05T14:32:27.421Z,24.83
2022-08-05T14:34:56.731Z,19.92
2022-08-05T14:37:24.155Z,26.38
2022-08-05T14:40:10.596Z,27.00
2022-08-05T14:42:41.232Z,25.83
2022-08-05T14:45:09.055Z,28.55
2022-08-05T14:48:03.574Z,24.13
2022-08-05T14:50:21.614Z,17.40
2022-08-05T14:52:58.311Z,12.05
2022-08-05T14:55:25.413Z,16.10
2022-08-05T14:57:54.570Z,15.73
2022-08-05T15:00:27.726Z,9.40
2022-08-05T15:02:54.534Z,15.93
2022-08-05T15:05:21.093Z,15.43
2022-08-05T15:08:06.238Z,16.23
2022-08-05T15:10:33.605Z,12.52
2022-08-05T15:15:54.098Z,24.50
2022-08-05T15:18:17.363Z,36.60
2022-08-05T15:20:43.810Z,28.60
2022-08-05T15:23:12.912Z,32.08
2022-08-05T15:25:41.177Z,26.25
2022-08-05T15:28:19.461Z,33.33
2022-08-05T15:30:53.017Z,23.58
2022-08-05T15:33:53.678Z,26.25
2022-08-05T15:36:06.239Z,34.75
2022-08-05T15:38:43.525Z,24.88
2022-08-05T15:41:22.507Z,30.17
2022-08-05T15:43:50.620Z,24.30
2022-08-05T15:46:18.992Z,31.35
2022-08-05T15:48:51.862Z,27.15
2022-08-05T15:52:04.261Z,32.97
2022-08-05T15:54:15.164Z,35.03
2022-08-05T15:56:41.975Z,26.17
2022-08-05T15:59:08.280Z,29.23
2022-08-05T16:01:39.810Z,27.40
2022-08-05T16:04:18.790Z,49.53
2022-08-05T16:06:45.058Z,41.38
2022-08-05T16:09:11.317Z,31.42
2022-08-05T16:11:42.545Z,29.95
2022-08-05T16:14:09.545Z,39.38
2022-08-05T16:16:36.183Z,24.63
2022-08-05T16:19:03.302Z,20.90
2022-08-05T16:21:58.592Z,21.23
2022-08-05T16:24:41.098Z,41.92
2022-08-05T16:27:03.306Z,28.50
2022-08-05T16:29:31.138Z,18.50
2022-08-05T16:32:03.586Z,26.10
2022-08-05T16:34:31.126Z,22.73
2022-08-05T16:40:04.144Z,22.20
2022-08-05T16:42:13.786Z,40.15
2022-08-05T16:44:42.164Z,24.60
2022-08-05T16:47:29.017Z,22.98
2022-08-05T16:49:57.005Z,25.05
2022-08-05T16:52:23.770Z,28.88
2022-08-05T16:54:58.954Z,27.50
2022-08-05T16:57:39.925Z,28.92
2022-08-05T17:00:12.468Z,32.55
2022-08-05T17:02:40.456Z,28.02
2022-08-05T17:05:07.083Z,26.98
2022-08-05T17:10:05.915Z,38.38
2022-08-05T17:15:19.680Z,39.25
2022-08-05T17:17:48.913Z,65.50
2022-08-05T17:20:21.591Z,52.83
2022-08-05T17:22:47.859Z,45.20
2022-08-05T17:25:22.076Z,65.90
2022-08-05T17:27:59.848Z,33.28
2022-08-05T17:30:28.288Z,33.75
2022-08-05T17:32:55.468Z,36.10
2022-08-05T17:35:21.802Z,35.70
2022-08-05T17:37:48.560Z,34.65
2022-08-05T17:40:15.918Z,39.25
2022-08-05T17:42:50.552Z,33.92
2022-08-05T17:45:21.181Z,30.20
2022-08-05T17:47:53.466Z,42.78
2022-08-05T17:50:27.679Z,43.53
2022-08-05T17:52:55.908Z,37.17
2022-08-05T17:55:22.440Z,51.17
2022-08-05T17:57:54.097Z,48.20
2022-08-05T18:00:20.366Z,49.95
2022-08-05T18:02:54.769Z,39.20
2022-08-05T18:05:21.887Z,41.50
2022-08-05T18:10:20.870Z,45.03
2022-08-05T18:12:48.429Z,32.90
2022-08-05T18:15:14.744Z,41.30
2022-08-05T18:18:01.077Z,35.15
2022-08-05T18:20:29.341Z,46.60
2022-08-05T18:22:58.467Z,64.53
2022-08-05T18:25:32.720Z,61.20
2022-08-05T18:27:59.617Z,54.97
2022-08-05T18:30:31.078Z,51.38
2022-08-05T18:33:00.880Z,57.55
2022-08-05T18:35:49.645Z,51.47
2022-08-05T18:38:16.460Z,48.60
2022-08-05T18:41:54.955Z,29.10
2022-08-05T18:43:38.280Z,15.30
2022-08-05T18:46:09.732Z,29.27
2022-08-05T18:48:36.627Z,32.63
2022-08-05T18:52:06.357Z,28.10
2022-08-05T18:54:12.913Z,48.72
2022-08-05T18:56:39.566Z,31.35
2022-08-05T18:59:41.851Z,44.50
2022-08-05T19:01:57.155Z,36.47
2022-08-05T19:04:25.104Z,30.67
2022-08-05T19:06:51.475Z,32.58
2022-08-05T19:09:20.029Z,46.40
2022-08-05T19:12:00.971Z,38.97
2022-08-05T19:14:59.530Z,40.63
2022-08-05T19:17:15.091Z,39.08
2022-08-05T19:19:46.384Z,21.90
2022-08-05T19:22:17.052Z,42.78
2022-08-05T19:24:54.423Z,39.55
2022-08-05T19:27:22.642Z,48.60
2022-08-05T19:29:49.927Z,41.30
2022-08-05T19:34:42.405Z,38.38
2022-08-05T19:37:21.682Z,46.40
2022-08-05T19:39:51.069Z,39.28
2022-08-05T19:42:18.182Z,59.03
2022-08-05T19:44:46.763Z,53.80
2022-08-05T19:47:15.241Z,65.07
2022-08-05T19:49:42.689Z,57.45
2022-08-05T19:52:30.386Z,78.53
